Time;durP1;ratioP1;P1;durP2;ratioP2;P2;SDS_P1;SDS_P2;PMS_P1;PMS_P2;Temp;Humidity;BMP_temperature;BMP_pressure;BME280_temperature;BME280_humidity;BME280_pressure;Samples;Min_cycle;Max_cycle;Signal;HPM_P1;HPM_P2
2021/05/23 20:16:54;;;;;;;;;8.25;7.25;;;;;16.84;52.19;98683.13;6249338;22;102454;-94
2021/05/23 20:19:22;;;;;;;;;15.75;11.25;;;;;16.83;52.19;98685.03;6261149;22;105576;-94
2021/05/23 20:21:50;;;;;;;;;9.00;8.25;;;;;16.84;52.38;98683.13;6244693;22;102120;-94
2021/05/23 20:24:17;;;;;;;;;10.25;8.00;;;;;16.78;52.39;98701.28;6205567;22;103353;-94
2021/05/23 20:26:45;;;;;;;;;13.75;10.00;;;;;16.77;52.72;98691.44;6245127;22;102246;-94
2021/05/23 20:29:12;;;;;;;;;10.25;9.00;;;;;16.78;52.10;98701.28;6241751;22;105020;-94
2021/05/23 20:31:39;;;;;;;;;8.75;6.00;;;;;16.75;52.16;98687.28;6230170;22;102143;-94
2021/05/23 20:34:06;;;;;;;;;10.25;8.50;;;;;16.73;52.17;98698.44;6211447;22;103983;-95
2021/05/23 20:36:33;;;;;;;;;8.50;7.75;;;;;16.74;52.22;98702.84;6214494;22;102242;-95
2021/05/23 20:39:01;;;;;;;;;10.00;8.75;;;;;16.78;52.66;98712.22;6193548;22;102081;-94
2021/05/23 20:41:28;;;;;;;;;11.00;6.75;;;;;16.79;52.90;98715.78;6241987;22;104706;-93
2021/05/23 20:43:55;;;;;;;;;9.75;8.00;;;;;16.78;51.70;98725.03;6185975;22;103123;-94
2021/05/23 20:46:22;;;;;;;;;9.00;6.00;;;;;16.77;51.90;98732.41;6236746;22;102245;-94
2021/05/23 20:48:49;;;;;;;;;8.25;7.00;;;;;16.76;53.70;98736.19;6213691;22;102167;-94
2021/05/23 20:51:16;;;;;;;;;7.00;5.00;;;;;16.75;52.93;98739.97;6209661;22;102228;-94
2021/05/23 20:53:45;;;;;;;;;9.00;8.00;;;;;16.73;52.80;98742.13;6242156;22;104007;-94
2021/05/23 20:56:12;;;;;;;;;7.00;5.00;;;;;16.73;53.28;98749.50;6208910;22;102610;-94
2021/05/23 20:58:40;;;;;;;;;8.25;7.25;;;;;16.70;53.43;98753.53;6194532;22;102383;-95
2021/05/23 21:01:07;;;;;;;;;9.50;8.00;;;;;16.65;52.58;98747.13;6239390;22;102421;-94
2021/05/23 21:03:38;;;;;;;;;9.00;7.00;;;;;16.64;52.60;98738.09;6238157;22;103983;-93
2021/05/23 21:06:06;;;;;;;;;7.25;6.00;;;;;16.63;52.88;98744.63;6249467;22;102000;-94
2021/05/23 21:08:34;;;;;;;;;9.00;7.50;;;;;16.61;52.88;98744.03;6248448;22;102099;-94
2021/05/23 21:11:23;;;;;;;;;9.50;8.00;;;;;16.63;53.09;98743.78;6244018;22;102627;-94
2021/05/23 21:13:59;;;;;;;;;7.00;5.00;;;;;16.62;53.33;98756.59;6229041;22;103254;-93
2021/05/23 21:16:26;;;;;;;;;7.00;6.00;;;;;16.59;53.03;98757.06;6245798;22;101938;-95
2021/05/23 21:18:53;;;;;;;;;6.00;6.00;;;;;16.59;53.47;98768.00;6189971;22;102163;-95
2021/05/23 21:21:23;;;;;;;;;7.75;6.25;;;;;16.55;53.07;98758.59;6234696;22;102492;-95
2021/05/23 21:23:51;;;;;;;;;9.25;7.25;;;;;16.54;52.51;98765.09;6264044;22;103106;-94
2021/05/23 21:26:19;;;;;;;;;6.50;5.00;;;;;16.54;53.54;98765.09;6188351;22;102414;-93
2021/05/23 21:28:46;;;;;;;;;7.00;6.50;;;;;16.54;53.43;98765.09;6241022;22;102558;-94
2021/05/23 21:31:26;;;;;;;;;5.00;5.00;;;;;16.52;52.99;98767.25;6246459;22;102113;-94
2021/05/23 21:34:02;;;;;;;;;6.25;5.25;;;;;16.47;53.11;98758.94;6162800;22;108821;-94
2021/05/23 21:36:29;;;;;;;;;6.00;6.00;;;;;16.42;52.56;98756.06;6200946;22;102151;-94
2021/05/23 21:39:05;;;;;;;;;7.50;6.50;;;;;16.48;52.80;98772.31;6182357;22;102398;-94
2021/05/23 21:41:32;;;;;;;;;5.00;5.00;;;;;16.45;52.42;98774.69;6163241;22;102640;-93
2021/05/23 21:44:00;;;;;;;;;6.25;5.00;;;;;16.28;52.12;98751.91;6210927;22;104367;-94
2021/05/23 21:46:27;;;;;;;;;6.00;5.50;;;;;16.43;52.69;98774.13;6255176;22;102083;-93
2021/05/23 21:48:54;;;;;;;;;8.50;6.00;;;;;16.43;53.02;98780.41;6217806;22;104879;-95
2021/05/23 21:51:21;;;;;;;;;6.50;4.75;;;;;16.37;51.95;98772.31;6209808;22;102743;-94
2021/05/23 21:53:49;;;;;;;;;4.25;4.25;;;;;16.44;52.63;98778.50;6192246;22;104026;-94
2021/05/23 21:56:16;;;;;;;;;5.50;4.25;;;;;16.43;52.92;98785.03;6187019;22;102644;-94
2021/05/23 21:58:43;;;;;;;;;6.50;5.00;;;;;16.45;52.91;98793.81;6191802;22;102021;-94
2021/05/23 22:01:11;;;;;;;;;6.00;4.50;;;;;16.42;52.60;98799.75;6249480;22;102401;-94
2021/05/23 22:03:40;;;;;;;;;7.00;6.75;;;;;16.37;52.00;98796.88;6223108;22;103913;-94
2021/05/23 22:06:08;;;;;;;;;5.00;5.00;;;;;16.36;52.65;98795.22;6214346;22;102561;-93
2021/05/23 22:08:35;;;;;;;;;5.75;5.00;;;;;16.35;52.11;98799.84;6168306;22;102198;-94
2021/05/23 22:11:12;;;;;;;;;4.75;4.75;;;;;16.38;52.03;98804.00;6155567;22;102584;-95
2021/05/23 22:13:39;;;;;;;;;6.00;5.00;;;;;16.38;52.50;98810.31;6123120;22;102891;-94
2021/05/23 22:16:06;;;;;;;;;5.75;5.00;;;;;16.35;51.91;98799.84;6200142;22;101993;-93
2021/05/23 22:18:35;;;;;;;;;4.00;4.00;;;;;16.36;51.64;98815.16;6180460;22;102614;-93
2021/05/23 22:21:04;;;;;;;;;4.00;4.00;;;;;16.37;51.22;98818.72;6184922;22;103016;-94
2021/05/23 22:23:31;;;;;;;;;5.50;4.00;;;;;16.34;51.92;98808.28;6242308;22;104552;-93
2021/05/23 22:25:58;;;;;;;;;4.25;4.00;;;;;16.27;51.38;98792.00;6153280;22;102084;-94
2021/05/23 22:28:26;;;;;;;;;7.00;5.00;;;;;16.33;51.24;98801.97;6236532;22;102061;-94
2021/05/23 22:30:53;;;;;;;;;5.50;5.00;;;;;16.31;52.04;98814.19;6251646;22;102137;-95
2021/05/23 22:33:21;;;;;;;;;5.75;5.00;;;;;16.30;51.36;98810.63;6248473;22;103983;-94
2021/05/23 22:36:00;;;;;;;;;5.50;5.50;;;;;16.31;50.85;98814.19;6249649;22;102002;-94
2021/05/23 22:38:28;;;;;;;;;4.50;3.75;;;;;16.28;51.34;98820.94;6281403;22;102339;-94
2021/05/23 22:40:56;;;;;;;;;4.00;4.00;;;;;16.24;51.43;98813.47;6276494;22;101871;-94
2021/05/23 22:43:24;;;;;;;;;8.00;6.00;;;;;16.27;51.27;98818.44;6279126;22;103475;-94
2021/05/23 22:45:51;;;;;;;;;6.25;5.50;;;;;16.24;50.88;98810.72;6272507;22;101650;-95
2021/05/23 22:48:18;;;;;;;;;4.25;4.00;;;;;16.22;50.97;98812.84;6274813;22;101199;-93
2021/05/23 22:51:00;;;;;;;;;4.00;3.50;;;;;16.24;51.37;98818.91;6272502;22;101901;-94
2021/05/23 22:53:27;;;;;;;;;2.00;2.00;;;;;16.19;51.15;98808.69;6257184;22;107386;-94
2021/05/23 22:55:55;;;;;;;;;5.25;5.25;;;;;16.07;50.98;98800.44;6261006;22;102740;-93
2021/05/23 22:58:30;;;;;;;;;2.50;2.50;;;;;16.20;50.55;98825.91;6145693;22;102306;-95
2021/05/23 23:01:09;;;;;;;;;5.00;4.00;;;;;16.20;50.49;98839.53;6222120;22;101937;-95
2021/05/23 23:03:49;;;;;;;;;6.00;5.75;;;;;16.17;51.00;98834.53;6131626;22;107485;-94
2021/05/23 23:06:17;;;;;;;;;6.25;4.25;;;;;16.13;50.16;98855.16;6239644;22;102052;-94
2021/05/23 23:08:53;;;;;;;;;4.00;3.00;;;;;16.12;50.37;98850.78;6137366;22;101902;-95
2021/05/23 23:11:27;;;;;;;;;4.00;4.00;;;;;16.12;50.85;98864.41;6148633;22;104503;-93
2021/05/23 23:13:56;;;;;;;;;5.00;4.00;;;;;16.11;50.70;98869.03;6025049;22;104177;-94
2021/05/23 23:16:37;;;;;;;;;5.00;3.00;;;;;16.11;50.91;98866.31;6002181;22;102168;-94
2021/05/23 23:19:08;;;;;;;;;5.75;4.25;;;;;16.05;50.79;98873.50;6009345;22;102487;-94
2021/05/23 23:21:37;;;;;;;;;2.75;2.75;;;;;16.04;50.21;98871.00;6134127;22;102439;-94
2021/05/23 23:24:04;;;;;;;;;4.50;4.50;;;;;16.06;50.02;98877.91;6200940;22;104220;-94
2021/05/23 23:26:33;;;;;;;;;5.00;4.50;;;;;16.05;50.76;98887.16;6172874;22;104791;-94
2021/05/23 23:29:00;;;;;;;;;6.00;4.75;;;;;16.02;50.59;98879.44;6238838;22;102118;-93
2021/05/23 23:31:32;;;;;;;;;5.00;4.25;;;;;16.02;50.13;98875.88;6241933;22;102226;-94
2021/05/23 23:33:59;;;;;;;;;6.00;5.00;;;;;16.00;50.38;98876.09;6245589;22;109421;-95
2021/05/23 23:36:27;;;;;;;;;4.25;3.50;;;;;15.96;50.27;98872.16;6225078;22;102264;-95
2021/05/23 23:38:54;;;;;;;;;5.75;4.50;;;;;15.96;49.79;98868.59;6201421;22;102160;-94
2021/05/23 23:41:21;;;;;;;;;4.00;4.00;;;;;15.95;50.18;98875.94;6240560;22;102260;-94
2021/05/23 23:43:48;;;;;;;;;5.00;4.00;;;;;15.93;50.64;98883.53;6212457;22;104240;-94
2021/05/23 23:46:16;;;;;;;;;4.50;4.00;;;;;15.90;49.79;98880.41;6219456;22;102461;-94
2021/05/23 23:48:43;;;;;;;;;3.00;3.00;;;;;15.93;49.55;98889.00;6218891;22;102474;-94
2021/05/23 23:51:11;;;;;;;;;3.25;3.25;;;;;15.91;49.64;98893.81;6181448;22;102388;-93
2021/05/23 23:53:38;;;;;;;;;3.50;3.00;;;;;15.91;49.58;98888.38;6204269;22;103929;-94
2021/05/23 23:56:08;;;;;;;;;3.50;3.50;;;;;15.85;49.84;98883.81;6192913;22;102378;-94
2021/05/23 23:58:52;;;;;;;;;5.00;4.00;;;;;15.84;49.97;98895.81;6183792;22;102489;-93
